Montgomery Township, Pennsylvania
Current Conditions -  °F | °C
As of 1:15 PM on Sunday 25 Jan 2015 (Local Time) from KLOM Reporting Station
Broken Clouds Broken Clouds  
Wind Chill: 37°   Ceiling: 3700
Heat Index: 43°   Visibility: 10mi
Dew Point: 32°   Wind: 10mph
Humidity: 66%   Direction: 290°WNW
Pressure: 29.78"   Gusts: 16mph
Location:  40.2226°N, 75.2413°W
Report Text: KLOM 251815Z AUTO 29009G14KT 250V320 10SM SCT030 BKN037 06/00 A2978 RMK AO1
Loading
Personal Weather Stations






























Interactive Weather Map New forecast layout! Learn more

10-Day Weather Forecast

Advertisements
Track Severe Weather on mobile